Time;durP1;ratioP1;P1;durP2;ratioP2;P2;SDS_P1;SDS_P2;PMS_P1;PMS_P2;Temp;Humidity;BMP_temperature;BMP_pressure;BME280_temperature;BME280_humidity;BME280_pressure;Samples;Min_cycle;Max_cycle;Signal;HPM_P1;HPM_P2
2022/11/13 00:00:33;;;;;;;32.00;17.90;;;8.40;34.80;;;;;;5049040;28;20428;-72
2022/11/13 00:02:59;;;;;;;32.37;16.40;;;8.50;32.50;;;;;;5049814;28;20415;-72
2022/11/13 00:05:24;;;;;;;27.23;15.13;;;8.50;35.20;;;;;;5048284;28;20173;-72
2022/11/13 00:07:50;;;;;;;27.23;16.27;;;8.50;35.50;;;;;;5051769;28;20173;-72
2022/11/13 00:10:16;;;;;;;27.40;14.67;;;8.40;31.10;;;;;;5039315;28;20545;-73
2022/11/13 00:12:41;;;;;;;32.93;15.07;;;8.40;37.60;;;;;;5048820;28;20177;-73
2022/11/13 00:15:07;;;;;;;28.70;14.73;;;8.40;33.40;;;;;;5044970;28;20224;-73
2022/11/13 00:17:32;;;;;;;32.50;15.37;;;8.40;37.50;;;;;;5043188;28;20173;-72
2022/11/13 00:19:58;;;;;;;27.57;15.13;;;8.50;37.50;;;;;;5045047;28;20187;-72
2022/11/13 00:22:23;;;;;;;28.10;15.20;;;8.50;37.60;;;;;;5050982;28;20173;-72
2022/11/13 00:24:49;;;;;;;31.37;15.57;;;8.60;31.30;;;;;;5047015;28;20611;-72
2022/11/13 00:27:14;;;;;;;34.70;15.77;;;8.60;31.90;;;;;;5050588;28;20227;-73
2022/11/13 00:29:40;;;;;;;27.50;15.67;;;8.60;33.20;;;;;;5047613;28;20239;-74
2022/11/13 00:32:06;;;;;;;26.70;15.43;;;8.50;37.10;;;;;;5050916;28;20177;-72
2022/11/13 00:34:31;;;;;;;27.27;14.07;;;8.40;36.80;;;;;;5049054;28;20213;-71
2022/11/13 00:36:57;;;;;;;22.60;13.17;;;8.40;30.60;;;;;;5051022;28;20169;-71
2022/11/13 00:39:22;;;;;;;25.37;14.27;;;8.40;29.60;;;;;;5048534;28;20177;-72
2022/11/13 00:41:48;;;;;;;26.43;14.50;;;8.40;28.20;;;;;;5040638;28;20340;-72
2022/11/13 00:44:13;;;;;;;25.93;13.17;;;8.40;27.70;;;;;;5048503;28;20283;-72
2022/11/13 00:46:39;;;;;;;21.40;12.97;;;8.40;27.50;;;;;;5048268;28;20169;-72
2022/11/13 00:49:04;;;;;;;25.20;13.47;;;8.40;27.90;;;;;;5049760;28;20208;-72
2022/11/13 00:51:30;;;;;;;24.93;13.80;;;8.40;25.50;;;;;;5045940;28;20681;-72
2022/11/13 00:53:55;;;;;;;26.63;14.40;;;8.30;27.10;;;;;;5050541;28;20254;-72
2022/11/13 00:56:21;;;;;;;22.53;13.23;;;8.20;30.50;;;;;;5046232;28;20181;-72
2022/11/13 00:58:47;;;;;;;25.20;13.90;;;8.30;30.30;;;;;;5050519;28;20180;-72
2022/11/13 01:01:16;;;;;;;24.33;13.87;;;8.30;31.80;;;;;;5047776;28;20170;-72
2022/11/13 01:03:42;;;;;;;25.30;13.63;;;8.40;34.80;;;;;;5046534;28;20278;-72
2022/11/13 01:06:16;;;;;;;26.20;14.53;;;8.40;30.00;;;;;;5038944;28;20440;-72
2022/11/13 01:08:42;;;;;;;22.43;12.83;;;8.40;30.40;;;;;;5042991;28;20219;-72
2022/11/13 01:11:12;;;;;;;22.40;13.53;;;8.30;26.60;;;;;;5039900;28;20439;-73
2022/11/13 01:13:39;;;;;;;22.80;12.93;;;8.40;27.10;;;;;;5050003;28;20200;-73
2022/11/13 01:16:07;;;;;;;22.97;13.57;;;8.40;27.80;;;;;;5044586;28;20428;-73
2022/11/13 01:18:34;;;;;;;25.10;13.07;;;8.40;26.20;;;;;;5050164;28;20439;-72
2022/11/13 01:21:08;;;;;;;23.10;13.23;;;8.50;25.70;;;;;;5042753;28;20419;-72
2022/11/13 01:23:34;;;;;;;24.90;13.20;;;8.50;23.90;;;;;;5050182;28;20450;-72
2022/11/13 01:26:10;;;;;;;26.20;13.73;;;8.40;25.50;;;;;;5045830;28;20458;-73
2022/11/13 01:28:37;;;;;;;24.70;13.57;;;8.40;26.80;;;;;;5050166;28;20517;-73
2022/11/13 01:31:07;;;;;;;24.53;13.73;;;8.40;27.50;;;;;;5038646;28;20432;-73
2022/11/13 01:33:33;;;;;;;21.63;12.93;;;8.40;27.50;;;;;;5049577;28;20455;-72
2022/11/13 01:36:05;;;;;;;24.17;13.60;;;8.40;27.20;;;;;;5047363;28;20459;-72
2022/11/13 01:38:30;;;;;;;24.40;12.90;;;8.40;26.80;;;;;;5049937;28;20177;-73
2022/11/13 01:40:56;;;;;;;26.50;14.10;;;8.40;26.50;;;;;;5041465;28;20424;-72
2022/11/13 01:43:26;;;;;;;24.40;14.20;;;8.40;25.10;;;;;;5049421;28;20294;-72
2022/11/13 01:45:57;;;;;;;23.30;13.00;;;8.50;25.50;;;;;;5042905;28;20182;-73
2022/11/13 01:48:30;;;;;;;25.90;13.10;;;8.40;23.80;;;;;;5039454;28;20959;-72
2022/11/13 01:50:57;;;;;;;25.30;13.00;;;8.40;22.90;;;;;;5048810;28;20411;-72
2022/11/13 01:53:22;;;;;;;23.70;12.40;;;8.40;22.00;;;;;;5044395;28;20471;-72
2022/11/13 01:55:48;;;;;;;27.80;15.23;;;8.40;21.10;;;;;;5047409;28;20427;-73
2022/11/13 01:58:14;;;;;;;18.77;12.37;;;8.30;24.10;;;;;;5046368;28;20181;-72
2022/11/13 02:00:40;;;;;;;22.80;12.87;;;8.30;25.80;;;;;;5046707;28;20169;-73
2022/11/13 02:03:06;;;;;;;28.20;13.90;;;8.30;23.50;;;;;;5047509;28;20435;-72
2022/11/13 02:05:31;;;;;;;24.90;12.70;;;8.30;21.10;;;;;;5045053;28;20242;-73
2022/11/13 02:07:57;;;;;;;27.37;13.20;;;8.30;24.00;;;;;;5048861;28;20192;-72
2022/11/13 02:10:23;;;;;;;26.60;12.67;;;8.30;22.20;;;;;;5032388;28;20182;-73
2022/11/13 02:12:50;;;;;;;24.53;12.60;;;8.20;16.90;;;;;;5047046;28;20169;-73
2022/11/13 02:15:19;;;;;;;26.23;12.90;;;8.20;18.40;;;;;;5039031;28;20235;-72
2022/11/13 02:17:49;;;;;;;20.87;11.53;;;8.20;19.40;;;;;;5047630;28;20411;-73
2022/11/13 02:20:16;;;;;;;24.07;12.67;;;8.10;21.20;;;;;;5045645;28;20443;-73
2022/11/13 02:23:00;;;;;;;22.80;12.93;;;8.20;22.30;;;;;;5047937;28;20427;-72
2022/11/13 02:25:28;;;;;;;23.23;12.30;;;8.20;21.60;;;;;;5044649;28;20415;-73
2022/11/13 02:27:54;;;;;;;24.80;12.80;;;8.10;22.10;;;;;;5047440;28;20408;-72
2022/11/13 02:30:26;;;;;;;20.87;12.20;;;8.10;21.60;;;;;;5043799;28;20474;-73
2022/11/13 02:32:53;;;;;;;24.00;12.93;;;8.10;21.00;;;;;;5047347;28;20255;-72
2022/11/13 02:35:32;;;;;;;26.00;12.63;;;8.10;21.90;;;;;;5041329;28;20416;-73
2022/11/13 02:38:00;;;;;;;26.00;13.40;;;8.10;24.60;;;;;;5048337;28;20411;-72
2022/11/13 02:40:26;;;;;;;26.10;13.43;;;8.10;23.90;;;;;;5036795;28;20443;-73
2022/11/13 02:42:52;;;;;;;24.30;12.60;;;8.20;22.70;;;;;;5045349;28;20810;-73
2022/11/13 02:45:18;;;;;;;26.23;13.40;;;8.10;23.30;;;;;;5045670;28;20442;-72
2022/11/13 02:47:43;;;;;;;27.33;14.07;;;8.10;25.30;;;;;;5049754;28;20223;-72
2022/11/13 02:50:10;;;;;;;28.23;14.00;;;8.10;23.60;;;;;;5052515;28;20427;-73
2022/11/13 02:52:36;;;;;;;24.87;13.77;;;8.00;23.30;;;;;;5049490;28;20181;-72
2022/11/13 02:55:02;;;;;;;28.33;14.33;;;8.10;27.80;;;;;;5046671;28;20542;-73
2022/11/13 02:57:27;;;;;;;23.80;13.27;;;8.10;26.00;;;;;;5052868;28;20188;-72
2022/11/13 02:59:53;;;;;;;25.03;13.20;;;7.70;24.80;;;;;;5049360;28;20791;-72
2022/11/13 03:02:18;;;;;;;26.63;13.50;;;8.10;24.50;;;;;;5046390;28;20208;-72
2022/11/13 03:04:45;;;;;;;25.10;12.90;;;8.10;22.00;;;;;;5048475;28;20230;-72
2022/11/13 03:07:10;;;;;;;33.40;14.00;;;8.00;24.50;;;;;;5048853;28;20829;-72
2022/11/13 03:09:36;;;;;;;22.77;12.50;;;8.10;24.70;;;;;;5043697;28;20447;-73
2022/11/13 03:12:02;;;;;;;21.17;12.10;;;8.10;23.30;;;;;;5044765;28;20185;-73
2022/11/13 03:14:27;;;;;;;22.90;12.30;;;8.10;24.30;;;;;;5052558;28;20212;-73
2022/11/13 03:16:53;;;;;;;23.50;12.60;;;8.00;23.50;;;;;;5045414;28;20189;-73
2022/11/13 03:19:18;;;;;;;24.33;13.17;;;8.10;23.20;;;;;;5052489;28;20185;-72
2022/11/13 03:21:44;;;;;;;25.33;13.40;;;8.00;23.80;;;;;;5045860;28;20172;-72
2022/11/13 03:24:09;;;;;;;27.47;13.47;;;8.00;23.40;;;;;;5052061;28;20593;-72
2022/11/13 03:26:35;;;;;;;25.33;13.00;;;8.00;23.40;;;;;;5049996;28;20196;-72
2022/11/13 03:29:00;;;;;;;23.60;13.60;;;8.00;23.40;;;;;;5048286;28;20504;-72
2022/11/13 03:31:26;;;;;;;29.00;12.37;;;8.00;24.40;;;;;;5052159;28;20203;-73
2022/11/13 03:33:52;;;;;;;23.33;13.30;;;8.00;24.30;;;;;;5046867;28;20196;-73
2022/11/13 03:36:18;;;;;;;20.53;11.80;;;8.00;24.60;;;;;;5051621;28;20256;-73
2022/11/13 03:38:44;;;;;;;20.53;11.90;;;8.00;24.50;;;;;;5045895;28;20512;-72
2022/11/13 03:41:09;;;;;;;24.50;12.87;;;8.00;20.80;;;;;;5036551;28;20256;-72
2022/11/13 03:43:35;;;;;;;23.50;12.40;;;7.90;20.30;;;;;;5047287;28;20209;-72
2022/11/13 03:46:00;;;;;;;30.20;12.40;;;7.90;26.30;;;;;;5051923;28;20177;-72
2022/11/13 03:48:26;;;;;;;24.57;12.50;;;7.90;29.50;;;;;;5044992;28;20181;-72
2022/11/13 03:50:53;;;;;;;25.07;14.07;;;7.90;29.30;;;;;;5048519;28;20575;-72
2022/11/13 03:53:19;;;;;;;23.63;13.00;;;7.90;31.40;;;;;;5051032;28;20647;-72
2022/11/13 03:55:46;;;;;;;24.63;12.87;;;8.00;29.90;;;;;;5048980;28;20526;-72
2022/11/13 03:58:12;;;;;;;26.87;14.07;;;8.00;31.60;;;;;;5051743;28;20161;-72
2022/11/13 04:00:39;;;;;;;27.13;12.93;;;7.90;30.00;;;;;;5049928;28;20443;-72
2022/11/13 04:03:04;;;;;;;23.80;13.27;;;8.00;29.20;;;;;;5050076;28;20412;-72
2022/11/13 04:05:30;;;;;;;27.67;13.07;;;7.90;32.00;;;;;;5043230;28;20509;-73
2022/11/13 04:07:55;;;;;;;26.80;12.97;;;8.00;29.30;;;;;;5051462;28;20184;-72
2022/11/13 04:10:21;;;;;;;26.87;13.33;;;7.90;32.70;;;;;;5036677;28;20182;-72
2022/11/13 04:12:47;;;;;;;24.30;12.27;;;7.80;28.80;;;;;;5041048;28;20716;-72
2022/11/13 04:15:12;;;;;;;19.07;11.90;;;7.80;30.60;;;;;;5048805;28;20197;-72
2022/11/13 04:17:39;;;;;;;20.77;11.10;;;7.80;30.10;;;;;;5043505;28;20178;-72
2022/11/13 04:20:05;;;;;;;17.00;10.90;;;7.80;27.10;;;;;;5050879;28;20648;-72
2022/11/13 04:22:30;;;;;;;21.40;11.63;;;7.80;26.60;;;;;;5043971;28;20467;-72
2022/11/13 04:24:56;;;;;;;19.33;11.30;;;7.90;26.70;;;;;;5048335;28;20435;-72
2022/11/13 04:27:21;;;;;;;23.10;11.57;;;7.70;24.50;;;;;;5049567;28;20181;-72
2022/11/13 04:29:47;;;;;;;17.40;11.00;;;7.70;24.10;;;;;;5051124;28;20652;-72
2022/11/13 04:32:12;;;;;;;23.63;10.87;;;7.70;28.20;;;;;;5044347;28;20231;-73
2022/11/13 04:34:38;;;;;;;25.00;11.80;;;7.70;30.10;;;;;;5050317;28;20571;-73
2022/11/13 04:37:03;;;;;;;23.37;11.80;;;7.70;27.10;;;;;;5048460;28;20644;-72
2022/11/13 04:39:29;;;;;;;19.13;11.30;;;7.80;27.80;;;;;;5042380;28;20558;-72
2022/11/13 04:44:39;;;;;;;18.20;10.70;;;7.70;28.90;;;;;;5045911;28;20239;-72
2022/11/13 04:47:04;;;;;;;16.77;10.57;;;7.80;29.30;;;;;;5050569;28;20415;-72
2022/11/13 04:49:30;;;;;;;15.63;10.67;;;7.80;25.60;;;;;;5047124;28;20304;-72
2022/11/13 04:51:55;;;;;;;26.83;9.50;;;7.80;25.50;;;;;;5042338;28;20581;-72
2022/11/13 04:54:21;;;;;;;15.57;9.80;;;7.80;22.30;;;;;;5048950;28;20791;-72
2022/11/13 04:56:46;;;;;;;15.50;9.60;;;7.70;24.80;;;;;;5048238;28;20180;-72
2022/11/13 04:59:12;;;;;;;27.83;10.20;;;7.70;24.10;;;;;;5047083;28;20259;-72
2022/11/13 05:01:37;;;;;;;33.70;11.40;;;7.60;23.60;;;;;;5036283;28;20248;-72
2022/11/13 05:04:03;;;;;;;16.40;9.30;;;7.50;25.10;;;;;;5041138;28;20212;-72
2022/11/13 05:06:29;;;;;;;21.67;10.50;;;7.40;29.20;;;;;;5047761;28;20204;-72
2022/11/13 05:08:54;;;;;;;32.07;11.40;;;7.50;29.40;;;;;;5042290;28;20185;-72
2022/11/13 05:11:20;;;;;;;20.10;10.20;;;7.40;29.40;;;;;;5050292;28;20183;-72
2022/11/13 05:13:46;;;;;;;16.90;10.27;;;7.40;29.10;;;;;;5049520;28;20211;-72
2022/11/13 05:16:13;;;;;;;16.60;9.53;;;7.50;32.50;;;;;;5049032;28;20179;-73
2022/11/13 05:18:39;;;;;;;17.13;10.03;;;7.50;29.30;;;;;;5047027;28;20185;-72
2022/11/13 05:21:08;;;;;;;23.00;10.17;;;7.50;26.50;;;;;;5048949;28;20408;-72
2022/11/13 05:23:34;;;;;;;22.27;10.03;;;7.50;25.50;;;;;;5032256;28;20209;-72
2022/11/13 05:26:05;;;;;;;15.20;9.17;;;7.40;29.10;;;;;;5050058;28;20411;-73
2022/11/13 05:28:30;;;;;;;20.33;8.90;;;7.40;29.60;;;;;;5049033;28;20760;-72
2022/11/13 05:31:04;;;;;;;13.53;8.87;;;7.30;27.20;;;;;;5040955;28;20518;-72
2022/11/13 05:33:30;;;;;;;15.93;8.40;;;7.40;26.50;;;;;;5047288;28;20215;-72
2022/11/13 05:36:03;;;;;;;23.77;8.50;;;7.40;27.00;;;;;;5049759;28;20407;-72
2022/11/13 05:38:29;;;;;;;29.07;10.80;;;7.40;25.40;;;;;;5047167;28;20260;-72
2022/11/13 05:41:00;;;;;;;48.53;15.93;;;7.30;27.40;;;;;;5033551;28;20519;-72
2022/11/13 05:43:26;;;;;;;33.33;10.13;;;7.30;27.50;;;;;;5046825;28;20192;-72
2022/11/13 05:45:57;;;;;;;19.33;9.20;;;7.20;36.60;;;;;;5049956;28;20492;-73
2022/11/13 05:48:23;;;;;;;21.80;8.73;;;7.30;32.80;;;;;;5048346;28;20679;-72
2022/11/13 05:50:48;;;;;;;14.93;8.43;;;7.20;26.10;;;;;;5049260;28;20423;-72
2022/11/13 05:53:14;;;;;;;23.00;9.03;;;7.20;31.60;;;;;;5032754;28;20206;-73
2022/11/13 05:55:39;;;;;;;18.30;9.37;;;7.20;28.80;;;;;;5042185;28;20176;-72
2022/11/13 05:58:05;;;;;;;20.23;8.57;;;7.10;28.60;;;;;;5043067;28;20698;-71
2022/11/13 06:00:30;;;;;;;19.23;9.43;;;7.10;36.40;;;;;;5049644;28;20264;-72
2022/11/13 06:02:56;;;;;;;16.80;9.60;;;7.10;27.00;;;;;;5043726;28;20174;-72
2022/11/13 06:05:21;;;;;;;20.50;9.60;;;7.10;26.80;;;;;;5049340;28;20177;-73
2022/11/13 06:07:48;;;;;;;28.73;9.43;;;7.10;29.50;;;;;;5044353;28;20196;-72
2022/11/13 06:10:13;;;;;;;27.80;9.77;;;7.20;26.30;;;;;;5040074;28;20173;-72
2022/11/13 06:12:39;;;;;;;28.43;9.63;;;7.10;27.10;;;;;;5046396;28;20411;-73
2022/11/13 06:15:05;;;;;;;28.70;9.40;;;7.10;32.80;;;;;;5046335;28;20205;-72
2022/11/13 06:17:30;;;;;;;32.60;8.97;;;7.10;28.70;;;;;;5052569;28;20165;-72
2022/11/13 06:19:56;;;;;;;16.23;8.60;;;7.20;25.00;;;;;;5049422;28;20173;-72
2022/11/13 06:22:21;;;;;;;25.67;9.20;;;7.10;25.80;;;;;;5053491;28;20173;-72
2022/11/13 06:24:47;;;;;;;37.97;9.27;;;7.10;24.30;;;;;;5051008;28;20675;-74
2022/11/13 06:27:12;;;;;;;13.77;8.50;;;7.10;26.60;;;;;;5044850;28;20238;-73
2022/11/13 06:29:38;;;;;;;16.17;9.27;;;7.20;26.00;;;;;;5050074;28;20182;-73
2022/11/13 06:32:04;;;;;;;26.40;9.70;;;7.20;26.60;;;;;;5053441;28;20235;-73
2022/11/13 06:34:29;;;;;;;21.80;9.57;;;7.20;24.90;;;;;;5051253;28;20209;-73
2022/11/13 06:36:55;;;;;;;18.60;8.60;;;7.20;24.00;;;;;;5045915;28;20173;-73
2022/11/13 06:39:20;;;;;;;29.70;9.73;;;7.20;27.80;;;;;;5051073;28;20207;-73
2022/11/13 06:41:46;;;;;;;24.30;9.00;;;7.20;29.00;;;;;;5036279;28;20262;-73
2022/11/13 06:44:11;;;;;;;20.53;9.40;;;7.10;36.50;;;;;;5051785;28;20201;-72
2022/11/13 06:46:37;;;;;;;14.53;8.50;;;7.20;36.50;;;;;;5043861;28;20707;-73
2022/11/13 06:49:02;;;;;;;32.57;9.97;;;7.10;26.80;;;;;;5052030;28;20423;-76
2022/11/13 06:51:30;;;;;;;69.47;12.63;;;7.20;36.60;;;;;;5043586;28;20186;-75
2022/11/13 06:53:56;;;;;;;37.13;14.93;;;7.30;36.80;;;;;;5041667;28;20209;-75
2022/11/13 06:56:22;;;;;;;71.13;13.17;;;7.90;90.70;;;;;;5048456;28;20439;-75
2022/11/13 06:58:48;;;;;;;57.27;19.67;;;7.80;33.50;;;;;;5053118;28;20422;-73
2022/11/13 07:01:19;;;;;;;29.13;18.17;;;7.80;37.00;;;;;;5040961;28;20213;-73
2022/11/13 07:03:44;;;;;;;23.60;11.63;;;7.60;27.10;;;;;;5051314;28;20772;-73
2022/11/13 07:06:20;;;;;;;24.73;9.30;;;7.50;23.00;;;;;;5047622;28;20443;-73
2022/11/13 07:08:46;;;;;;;27.83;10.03;;;7.40;25.00;;;;;;5046326;28;20644;-73
2022/11/13 07:11:14;;;;;;;43.57;10.30;;;7.30;27.30;;;;;;5039532;28;20431;-73
2022/11/13 07:13:41;;;;;;;28.77;10.40;;;7.30;26.50;;;;;;5052669;28;20571;-73
2022/11/13 07:16:07;;;;;;;32.97;10.70;;;7.30;27.10;;;;;;5046995;28;20440;-73
2022/11/13 07:18:33;;;;;;;51.17;11.17;;;7.30;25.50;;;;;;5037090;28;20420;-72
2022/11/13 07:21:06;;;;;;;30.10;9.90;;;7.20;23.60;;;;;;5043224;28;20455;-72
2022/11/13 07:23:35;;;;;;;20.77;10.83;;;7.30;26.40;;;;;;5052124;28;20244;-73
2022/11/13 07:26:02;;;;;;;72.40;12.23;;;7.40;30.20;;;;;;5045229;28;20451;-73
2022/11/13 07:28:28;;;;;;;30.00;12.30;;;7.40;19.90;;;;;;5051571;28;20510;-73
2022/11/13 07:30:57;;;;;;;52.03;11.60;;;7.30;24.20;;;;;;5049694;28;20880;-72
2022/11/13 07:33:23;;;;;;;50.17;10.93;;;7.30;24.30;;;;;;5051267;28;20205;-73
2022/11/13 07:35:49;;;;;;;41.40;10.83;;;7.20;23.10;;;;;;5049353;28;20437;-73
2022/11/13 07:38:14;;;;;;;30.90;11.27;;;7.20;23.00;;;;;;5047132;28;20181;-73
2022/11/13 07:40:40;;;;;;;41.33;14.53;;;7.20;27.90;;;;;;5037767;28;20185;-73
2022/11/13 07:43:05;;;;;;;31.13;13.00;;;7.30;32.20;;;;;;5050967;28;20212;-73
2022/11/13 07:45:31;;;;;;;31.70;11.20;;;7.40;29.50;;;;;;5046244;28;20182;-73
2022/11/13 07:47:58;;;;;;;30.40;11.97;;;7.30;25.10;;;;;;5051169;28;20188;-73
2022/11/13 07:50:25;;;;;;;37.30;14.27;;;7.40;23.90;;;;;;5046746;28;20254;-73
2022/11/13 07:52:58;;;;;;;21.17;12.00;;;7.40;23.80;;;;;;5049221;28;20960;-73
2022/11/13 07:55:24;;;;;;;46.33;12.13;;;7.40;25.70;;;;;;5047499;28;20500;-73
2022/11/13 07:57:49;;;;;;;40.17;10.97;;;7.30;17.80;;;;;;5049840;28;20424;-73
2022/11/13 08:00:16;;;;;;;34.17;11.67;;;7.30;25.20;;;;;;5050309;28;20400;-73
2022/11/13 08:02:42;;;;;;;27.00;12.47;;;7.40;23.30;;;;;;5040614;28;20193;-73
2022/11/13 08:05:08;;;;;;;27.87;12.60;;;7.40;22.60;;;;;;5049803;28;20431;-72
2022/11/13 08:07:33;;;;;;;22.77;13.03;;;7.50;18.80;;;;;;5046696;28;20454;-74
2022/11/13 08:09:59;;;;;;;19.53;11.03;;;7.60;20.30;;;;;;5038431;28;20201;-73
2022/11/13 08:12:24;;;;;;;30.23;12.20;;;7.70;17.60;;;;;;5042705;28;20231;-74
2022/11/13 08:14:50;;;;;;;32.37;12.20;;;7.50;16.40;;;;;;5042054;28;20201;-73
2022/11/13 08:17:15;;;;;;;30.07;11.27;;;7.80;12.20;;;;;;5050383;28;20177;-74
2022/11/13 08:19:41;;;;;;;23.67;11.67;;;7.70;13.00;;;;;;5047510;28;20169;-73
2022/11/13 08:22:06;;;;;;;17.27;10.27;;;7.60;12.60;;;;;;5048241;28;20185;-74
2022/11/13 08:24:32;;;;;;;20.63;10.73;;;7.50;12.50;;;;;;5047480;28;20216;-74
2022/11/13 08:26:57;;;;;;;23.23;10.30;;;7.50;16.30;;;;;;5043098;28;20655;-74
2022/11/13 08:29:23;;;;;;;21.40;11.83;;;7.50;13.80;;;;;;5044154;28;20178;-72
2022/11/13 08:31:49;;;;;;;24.40;12.13;;;7.60;13.10;;;;;;5041187;28;20662;-72
2022/11/13 08:34:14;;;;;;;25.67;13.13;;;7.70;9.60;;;;;;5050271;28;20201;-74
2022/11/13 08:36:40;;;;;;;26.03;13.20;;;7.70;11.00;;;;;;5040734;28;20185;-74
2022/11/13 08:39:05;;;;;;;16.40;9.73;;;7.70;10.60;;;;;;5048935;28;20183;-73
2022/11/13 08:41:31;;;;;;;17.43;10.17;;;7.70;7.20;;;;;;5039974;28;20733;-74
2022/11/13 08:43:56;;;;;;;25.70;11.23;;;7.60;7.50;;;;;;5050829;28;20221;-71
2022/11/13 08:46:22;;;;;;;21.80;11.97;;;7.50;6.70;;;;;;5047031;28;20260;-74
2022/11/13 08:48:47;;;;;;;23.77;12.00;;;7.50;6.90;;;;;;5050193;28;20268;-74
2022/11/13 08:51:13;;;;;;;21.87;10.97;;;7.60;7.90;;;;;;5038194;28;20181;-74
2022/11/13 08:53:38;;;;;;;36.87;12.30;;;7.50;8.80;;;;;;5050781;28;20193;-74
2022/11/13 08:56:04;;;;;;;21.47;11.63;;;7.80;8.70;;;;;;5047393;28;20679;-72
2022/11/13 08:58:29;;;;;;;20.53;12.37;;;7.60;9.50;;;;;;5049897;28;20170;-72
2022/11/13 09:01:00;;;;;;;24.90;14.33;;;7.70;8.30;;;;;;5047845;28;20176;-73
2022/11/13 09:03:25;;;;;;;18.20;10.90;;;7.80;4.40;;;;;;5046578;28;20201;-74
2022/11/13 09:05:51;;;;;;;22.42;12.60;;;7.90;4.60;;;;;;5046116;28;20946;-74
2022/11/13 09:08:16;;;;;;;24.50;11.20;;;8.00;2.20;;;;;;5040420;28;20184;-72
2022/11/13 09:10:42;;;;;;;25.87;12.30;;;8.00;1.00;;;;;;5047867;28;20216;-72
2022/11/13 09:13:08;;;;;;;36.83;12.17;;;8.10;1.00;;;;;;5049951;28;20284;-71
2022/11/13 09:15:37;;;;;;;24.00;12.97;;;8.10;1.00;;;;;;5048944;28;20317;-72
2022/11/13 09:18:02;;;;;;;22.40;12.53;;;8.20;1.00;;;;;;5040141;28;20412;-72
2022/11/13 09:20:30;;;;;;;20.07;11.97;;;8.30;1.00;;;;;;5045434;28;20488;-72
2022/11/13 09:23:00;;;;;;;24.33;12.83;;;8.40;1.00;;;;;;5041254;28;20687;-72
2022/11/13 09:25:27;;;;;;;22.90;12.73;;;8.50;1.00;;;;;;5047181;28;20408;-72
2022/11/13 09:27:55;;;;;;;26.00;13.10;;;8.50;1.00;;;;;;5040575;28;20540;-74
2022/11/13 09:30:21;;;;;;;27.23;12.57;;;8.30;1.00;;;;;;5034197;28;20444;-72
2022/11/13 09:32:46;;;;;;;23.07;13.10;;;8.20;1.00;;;;;;5041546;28;20424;-71
2022/11/13 09:35:12;;;;;;;27.47;13.03;;;8.20;1.00;;;;;;5045945;28;20211;-72
2022/11/13 09:37:37;;;;;;;25.50;12.23;;;8.30;1.00;;;;;;5049690;28;20242;-72
2022/11/13 09:40:03;;;;;;;18.93;12.03;;;8.30;1.00;;;;;;5037307;28;20181;-71
2022/11/13 09:42:31;;;;;;;19.57;12.30;;;8.50;1.00;;;;;;5040589;28;20560;-74
2022/11/13 09:45:11;;;;;;;24.60;13.97;;;8.60;1.00;;;;;;5037971;28;20196;-71
2022/11/13 09:47:41;;;;;;;22.90;13.53;;;8.60;1.00;;;;;;5037584;28;20827;-70
2022/11/13 09:50:13;;;;;;;23.30;12.80;;;8.80;1.00;;;;;;5048320;28;20443;-71
2022/11/13 09:52:42;;;;;;;27.07;14.60;;;8.90;1.00;;;;;;5046185;28;20408;-72
2022/11/13 09:55:12;;;;;;;29.57;14.23;;;9.00;1.00;;;;;;5046840;28;20514;-71
2022/11/13 09:58:08;;;;;;;23.27;13.77;;;9.00;1.00;;;;;;5046833;28;20779;-72
2022/11/13 10:00:33;;;;;;;25.67;14.23;;;9.00;1.00;;;;;;5046740;28;20802;-71
2022/11/13 10:03:28;;;;;;;25.93;13.60;;;9.10;1.00;;;;;;5049224;28;20408;-71
2022/11/13 10:06:22;;;;;;;36.50;13.70;;;9.10;1.00;;;;;;5041072;28;20799;-72
2022/11/13 10:08:53;;;;;;;27.63;15.50;;;9.10;1.00;;;;;;5044913;28;20960;-72
2022/11/13 10:11:51;;;;;;;28.73;16.13;;;9.10;1.00;;;;;;5038794;28;20431;-72
2022/11/13 10:14:26;;;;;;;34.00;17.20;;;9.20;1.00;;;;;;5035766;28;20472;-71
2022/11/13 10:17:01;;;;;;;30.07;15.77;;;9.20;1.00;;;;;;5046328;28;20407;-72
2022/11/13 10:20:00;;;;;;;26.27;14.33;;;9.10;1.00;;;;;;5047519;28;20515;-71
2022/11/13 10:22:49;;;;;;;23.97;14.03;;;9.20;1.00;;;;;;5039992;28;20514;-71
2022/11/13 10:25:24;;;;;;;26.70;13.80;;;9.50;1.00;;;;;;5045124;28;20435;-71
2022/11/13 10:27:56;;;;;;;25.33;13.50;;;9.60;1.00;;;;;;5047886;28;20968;-72
2022/11/13 10:30:22;;;;;;;26.67;14.00;;;9.60;1.00;;;;;;5044188;28;20408;-72
2022/11/13 10:32:49;;;;;;;23.33;13.50;;;9.60;1.00;;;;;;5028926;28;20427;-70
2022/11/13 10:35:54;;;;;;;20.97;13.17;;;9.60;1.00;;;;;;5046849;28;20450;-72
2022/11/13 10:38:26;;;;;;;25.43;14.97;;;9.50;1.00;;;;;;5044247;28;20428;-71
2022/11/13 10:41:04;;;;;;;25.13;14.13;;;9.50;1.00;;;;;;5044953;28;20815;-68
2022/11/13 10:43:29;;;;;;;24.40;14.30;;;9.70;1.00;;;;;;5041951;28;20474;-71
2022/11/13 10:45:58;;;;;;;24.70;13.80;;;9.80;1.00;;;;;;5049288;28;20922;-72
2022/11/13 10:48:30;;;;;;;22.13;13.53;;;10.10;1.00;;;;;;5039454;28;20185;-71
2022/11/13 10:50:59;;;;;;;24.90;14.60;;;10.50;1.00;;;;;;5046562;28;20425;-71
2022/11/13 10:53:27;;;;;;;24.90;15.00;;;10.70;1.00;;;;;;5047292;28;20444;-72
2022/11/13 10:55:56;;;;;;;24.03;14.57;;;10.70;1.00;;;;;;5041612;28;20444;-72
2022/11/13 10:58:22;;;;;;;24.17;14.43;;;10.90;1.00;;;;;;5041960;28;20823;-72
2022/11/13 11:00:48;;;;;;;25.20;15.10;;;11.00;1.00;;;;;;5036059;28;20432;-71
2022/11/13 11:03:25;;;;;;;24.90;15.50;;;11.10;1.00;;;;;;5044726;28;20193;-71
2022/11/13 11:05:57;;;;;;;29.03;15.47;;;11.20;1.00;;;;;;5044125;28;20553;-73
2022/11/13 11:08:31;;;;;;;30.30;17.30;;;11.50;1.00;;;;;;5052223;28;20477;-72
2022/11/13 11:13:43;;;;;;;24.87;15.90;;;11.40;1.00;;;;;;5052098;28;20573;-73
2022/11/13 11:16:16;;;;;;;24.77;14.90;;;11.20;1.00;;;;;;5044065;28;20495;-72
2022/11/13 11:18:50;;;;;;;24.53;15.57;;;11.60;1.00;;;;;;5049869;28;20422;-72
2022/11/13 11:21:21;;;;;;;25.83;15.43;;;11.90;1.00;;;;;;5043890;28;20934;-73
2022/11/13 11:23:58;;;;;;;26.87;16.77;;;12.70;1.00;;;;;;5049729;28;20447;-73
2022/11/13 11:26:34;;;;;;;27.07;15.77;;;13.10;1.00;;;;;;5046851;28;20439;-73
2022/11/13 11:29:37;;;;;;;27.33;17.27;;;13.10;1.00;;;;;;5032420;28;20483;-72
2022/11/13 11:32:12;;;;;;;24.00;15.27;;;13.20;1.00;;;;;;5041307;28;20431;-73
2022/11/13 11:34:48;;;;;;;24.47;14.87;;;15.60;1.00;;;;;;5045699;28;20814;-72
2022/11/13 11:37:17;;;;;;;25.40;16.03;;;16.50;1.00;;;;;;5045551;28;20965;-73
2022/11/13 11:39:43;;;;;;;24.40;15.70;;;18.90;1.00;;;;;;5040935;28;20440;-73
2022/11/13 11:42:27;;;;;;;22.20;17.07;;;20.60;1.00;;;;;;5050438;28;20458;-72
2022/11/13 11:45:20;;;;;;;24.40;17.60;;;22.10;1.00;;;;;;5042990;28;20197;-73
2022/11/13 11:47:45;;;;;;;25.27;18.37;;;22.60;1.00;;;;;;5047411;28;20436;-72
2022/11/13 11:50:17;;;;;;;26.90;18.10;;;21.00;1.00;;;;;;5044693;28;20940;-73
2022/11/13 11:53:04;;;;;;;30.00;20.10;;;20.00;1.00;;;;;;5048297;28;20178;-73
2022/11/13 11:55:48;;;;;;;27.40;19.30;;;19.30;1.00;;;;;;5051060;28;20517;-73
2022/11/13 11:58:48;;;;;;;25.90;18.83;;;19.10;1.00;;;;;;5048666;28;20518;-72
2022/11/13 12:01:21;;;;;;;27.43;18.77;;;20.80;1.00;;;;;;5041624;28;20479;-73
2022/11/13 12:04:05;;;;;;;26.20;19.20;;;21.40;1.00;;;;;;5045156;28;20935;-74
2022/11/13 12:07:00;;;;;;;26.40;18.50;;;20.90;1.00;;;;;;5051640;28;20420;-73
2022/11/13 12:09:31;;;;;;;20.57;16.83;;;19.80;1.00;;;;;;4997958;28;20456;-73
2022/11/13 12:12:24;;;;;;;21.60;16.63;;;19.80;1.00;;;;;;5050512;28;20436;-73
2022/11/13 12:14:56;;;;;;;21.00;16.50;;;21.30;1.00;;;;;;5046636;28;20471;-73
2022/11/13 12:17:29;;;;;;;23.07;17.37;;;22.20;1.00;;;;;;5049140;28;20983;-72
2022/11/13 12:20:19;;;;;;;21.57;17.13;;;22.90;1.00;;;;;;5049942;28;20507;-73
2022/11/13 12:23:05;;;;;;;21.70;15.63;;;22.90;1.00;;;;;;5044149;28;20430;-73
2022/11/13 12:26:00;;;;;;;18.67;15.50;;;24.00;1.00;;;;;;5051392;28;20403;-73
2022/11/13 12:28:30;;;;;;;17.77;14.60;;;24.30;1.00;;;;;;5040657;28;20475;-73
2022/11/13 12:31:04;;;;;;;18.60;15.80;;;24.70;1.00;;;;;;5044448;28;20501;-73
2022/11/13 12:33:35;;;;;;;24.93;17.67;;;25.00;1.00;;;;;;5050772;28;20976;-73
2022/11/13 12:36:02;;;;;;;20.03;16.90;;;25.20;1.00;;;;;;5050642;28;20748;-74
2022/11/13 12:38:55;;;;;;;19.60;16.80;;;25.20;1.00;;;;;;5050216;28;20907;-73
2022/11/13 12:41:35;;;;;;;23.60;18.13;;;25.50;1.00;;;;;;5050596;28;20431;-74
2022/11/13 12:44:26;;;;;;;22.87;18.13;;;25.90;1.00;;;;;;5040609;28;20446;-73
2022/11/13 12:46:54;;;;;;;23.87;18.97;;;26.40;1.00;;;;;;5033407;28;20491;-74
2022/11/13 12:49:22;;;;;;;21.90;17.97;;;25.20;1.00;;;;;;5047640;28;20945;-72
2022/11/13 12:52:03;;;;;;;24.63;18.87;;;23.40;1.00;;;;;;5038768;28;20440;-73
2022/11/13 12:54:32;;;;;;;21.93;18.00;;;21.90;1.00;;;;;;5049293;28;20821;-73